^^
Saratoga-Weather Station Historical Data
Daily Summary for September 18, 2021 Units:  English    Metric   Both
Daily Weekly Monthly Yearly Custom
  High: Low: Average:
Temperature: 42.3 °F 33.1 °F 35.6 °F
Dew Point: 40.5 °F 32 °F 34.5 °F
Humidity: 97% 93% 96%
Wind Speed: 2mph 0mph 0.1mph
Wind Gust: 4mph - -
Wind- - ENE
Pressure: 30.1 in 29.9 in -
Precipitation: 0.01 in    
Historical Graphs
 
 
Tabular Data for September 18, 2021
Time Temperature Dew Point Pressure Wind Wind Speed Wind Gust Humidity Rainfall Rate (Hourly) solar
00:04 37.6 °F 36 °F 30.1 in Calm     94% 0 in 0 W/m2
00:09 37.4 °F 35.8 °F 30.1 in Calm     94% 0 in 0 W/m2
00:14 37.2 °F 35.6 °F 30.1 in Calm     94% 0 in 0 W/m2
00:19 37.2 °F 35.6 °F 30.1 in Calm   1 mph 94% 0 in 0 W/m2
00:24 37.2 °F 36 °F 30.1 in Calm     95% 0 in 0 W/m2
00:29 37.2 °F 36 °F 30.1 in Calm     95% 0 in 0 W/m2
00:34 37 °F 35.8 °F 30.1 in Calm     95% 0 in 0 W/m2
00:39 36.9 °F 35.2 °F 30.1 in Calm     94% 0 in 0 W/m2
00:44 36.9 °F 35.2 °F 30.1 in Calm     94% 0 in 0 W/m2
00:49 36.7 °F 35.4 °F 30.1 in Calm     95% 0 in 0 W/m2
00:54 36.7 °F 35.4 °F 30.1 in Calm     95% 0 in 0 W/m2
00:59 36.9 °F 35.6 °F 30.1 in Calm     95% 0 in 0 W/m2
01:04 36.9 °F 35.6 °F 30.1 in Calm     95% 0 in 0 W/m2
01:09 36.7 °F 35.4 °F 30.1 in Calm     95% 0 in 0 W/m2
01:14 36.7 °F 35.4 °F 30.1 in Calm     95% 0 in 0 W/m2
01:19 36.5 °F 35.2 °F 30 in Calm     95% 0 in 0 W/m2
01:24 36.3 °F 35.1 °F 30 in Calm     95% 0 in 0 W/m2
01:29 36.3 °F 35.1 °F 30 in Calm     95% 0 in 0 W/m2
01:34 36.3 °F 35.1 °F 30 in Calm     95% 0 in 0 W/m2
01:40 36.1 °F 34.9 °F 30 in Calm     95% 0 in 0 W/m2
01:45 36 °F 34.7 °F 30 in Calm     95% 0 in 0 W/m2
01:50 36 °F 34.7 °F 30 in Calm     95% 0 in 0 W/m2
01:55 36 °F 34.7 °F 30 in Calm     95% 0 in 0 W/m2
02:00 35.8 °F 34.5 °F 30 in Calm     95% 0 in 0 W/m2
02:05 35.8 °F 34.5 °F 30 in Calm     95% 0 in 0 W/m2
02:10 35.6 °F 34.3 °F 30 in Calm     95% 0 in 0 W/m2
02:15 35.8 °F 34.5 °F 30 in Calm     95% 0 in 0 W/m2
02:20 35.8 °F 34.5 °F 30 in Calm     95% 0 in 0 W/m2
02:25 35.6 °F 34.3 °F 30 in Calm     95% 0 in 0 W/m2
02:30 35.8 °F 34.5 °F 30 in Calm     95% 0 in 0 W/m2
02:35 35.8 °F 34.7 °F 30 in Calm     96% 0 in 0 W/m2
02:40 35.6 °F 34.3 °F 30 in Calm     95% 0 in 0 W/m2
02:45 35.4 °F 34.2 °F 30 in Calm     95% 0 in 0 W/m2
02:50 35.4 °F 34.3 °F 30 in Calm     96% 0 in 0 W/m2
02:55 35.2 °F 34.2 °F 30 in Calm     96% 0 in 0 W/m2
03:00 35.2 °F 34 °F 30 in Calm     95% 0 in 0 W/m2
03:05 35.1 °F 33.8 °F 30 in Calm     95% 0 in 0 W/m2
03:10 35.1 °F 33.8 °F 30 in Calm     95% 0 in 0 W/m2
03:15 34.9 °F 33.6 °F 30 in Calm     95% 0 in 0 W/m2
03:20 34.7 °F 33.4 °F 30 in Calm     95% 0 in 0 W/m2
03:25 34.5 °F 33.3 °F 30 in Calm     95% 0 in 0 W/m2
03:30 34.3 °F 33.1 °F 30 in Calm     95% 0 in 0 W/m2
03:35 34.3 °F 33.1 °F 30 in Calm     95% 0 in 0 W/m2
03:40 34.3 °F 33.3 °F 30 in Calm     96% 0 in 0 W/m2
03:45 34.3 °F 33.3 °F 30 in Calm     96% 0 in 0 W/m2
03:50 34.3 °F 33.3 °F 30 in Calm     96% 0 in 0 W/m2
03:55 34.2 °F 33.1 °F 30 in Calm     96% 0 in 0 W/m2
04:00 34.2 °F 33.1 °F 30 in Calm     96% 0 in 0 W/m2
04:05 34.2 °F 33.1 °F 30 in Calm     96% 0 in 0 W/m2
04:10 34.2 °F 33.1 °F 30 in Calm     96% 0 in 0 W/m2
04:15 34.3 °F 33.3 °F 30 in Calm     96% 0 in 0 W/m2
04:20 34.3 °F 33.3 °F 30 in Calm     96% 0 in 0 W/m2
04:25 34.3 °F 33.3 °F 30 in Calm     96% 0 in 0 W/m2
04:30 34.3 °F 33.3 °F 30 in Calm     96% 0 in 0 W/m2
04:35 34.3 °F 33.3 °F 30 in Calm     96% 0 in 0 W/m2
04:40 34.3 °F 33.3 °F 30 in Calm     96% 0 in 0 W/m2
04:45 34.5 °F 33.4 °F 30 in Calm     96% 0 in 0 W/m2
04:50 34.7 °F 33.6 °F 30 in Calm     96% 0 in 0 W/m2
04:55 34.9 °F 33.8 °F 30 in NE 0.9 mph 2 mph 96% 0 in 0 W/m2
05:00 34.9 °F 33.8 °F 30 in Calm     96% 0 in 0 W/m2
05:05 34.9 °F 33.8 °F 30 in Calm   2 mph 96% 0 in 0 W/m2
05:11 34.5 °F 33.4 °F 30 in Calm     96% 0 in 0 W/m2
05:16 34.5 °F 33.4 °F 30 in Calm     96% 0 in 0 W/m2
05:21 34.3 °F 33.3 °F 30 in Calm     96% 0 in 0 W/m2
05:26 34.3 °F 33.3 °F 30 in Calm     96% 0 in 0 W/m2
05:31 34.3 °F 33.3 °F 30 in Calm     96% 0 in 0 W/m2
05:36 34.2 °F 33.1 °F 30 in Calm     96% 0 in 0 W/m2
05:41 34.2 °F 33.1 °F 30 in Calm     96% 0 in 0 W/m2
05:46 34.2 °F 33.1 °F 30 in Calm     96% 0 in 0 W/m2
05:51 34 °F 32.9 °F 30 in Calm     96% 0 in 0 W/m2
05:56 34 °F 32.9 °F 30 in Calm     96% 0 in 0 W/m2
06:01 34 °F 32.9 °F 30 in Calm     96% 0 in 0 W/m2
06:06 34 °F 32.9 °F 30 in Calm     96% 0 in 0 W/m2
06:11 34 °F 32.9 °F 30 in Calm     96% 0 in 0 W/m2
06:16 34 °F 32.9 °F 30 in Calm     96% 0 in 0 W/m2
06:21 34.2 °F 33.1 °F 30 in Calm     96% 0 in 0 W/m2
06:26 34.2 °F 33.1 °F 30 in Calm     96% 0 in 0 W/m2
06:31 34.3 °F 33.3 °F 30 in Calm     96% 0 in 0 W/m2
06:36 34.3 °F 33.3 °F 30 in Calm     96% 0 in 0 W/m2
06:41 34.3 °F 33.3 °F 30 in Calm     96% 0 in 0 W/m2
06:46 34.2 °F 33.1 °F 30 in Calm     96% 0 in 0 W/m2
06:51 34.3 °F 33.3 °F 30 in Calm     96% 0 in 0 W/m2
06:56 34.3 °F 33.3 °F 30 in Calm     96% 0 in 0 W/m2
07:01 34.2 °F 33.1 °F 30 in Calm     96% 0 in 0 W/m2
07:06 34.2 °F 33.1 °F 30 in Calm     96% 0 in 0 W/m2
07:11 34 °F 32.9 °F 30 in Calm     96% 0 in 0 W/m2
07:16 33.6 °F 32.5 °F 30 in Calm     96% 0 in 0 W/m2
07:21 33.4 °F 32.4 °F 30 in Calm     96% 0 in 0 W/m2
07:26 33.4 °F 32.4 °F 30 in Calm     96% 0 in 0 W/m2
07:31 33.3 °F 32.2 °F 30 in Calm     96% 0 in 0 W/m2
07:36 33.1 °F 32 °F 30 in Calm     96% 0 in 0 W/m2
07:41 33.3 °F 32.2 °F 30 in Calm     96% 0 in 0 W/m2
07:46 33.3 °F 32.2 °F 29.9 in Calm     96% 0 in 7 W/m2
07:51 33.3 °F 32.2 °F 30 in Calm     96% 0 in 12 W/m2
07:56 33.4 °F 32.4 °F 29.9 in Calm     96% 0 in 18 W/m2
08:01 33.4 °F 32.4 °F 29.9 in Calm     96% 0 in 21 W/m2
08:06 33.4 °F 32.4 °F 30 in Calm     96% 0 in 23 W/m2
08:11 33.4 °F 32.4 °F 30 in Calm     96% 0 in 28 W/m2
08:16 33.4 °F 32.4 °F 30 in Calm     96% 0 in 32 W/m2
08:21 33.6 °F 32.9 °F 30 in Calm     97% 0.01 in 35 W/m2
08:26 33.6 °F 32.9 °F 30 in Calm     97% 0.01 in 40 W/m2
08:31 34 °F 33.3 °F 29.9 in Calm     97% 0.01 in 42 W/m2
08:36 34.2 °F 33.4 °F 29.9 in Calm     97% 0.01 in 47 W/m2
08:42 34.5 °F 33.8 °F 29.9 in Calm     97% 0.01 in 53 W/m2
08:47 34.7 °F 34 °F 29.9 in Calm     97% 0.01 in 53 W/m2
08:52 34.9 °F 34.2 °F 29.9 in Calm     97% 0.01 in 54 W/m2
08:57 35.2 °F 34.5 °F 29.9 in Calm     97% 0.01 in 60 W/m2
09:02 35.4 °F 34.7 °F 29.9 in Calm     97% 0.01 in 62 W/m2
09:07 35.8 °F 35.1 °F 29.9 in Calm     97% 0.01 in 63 W/m2
09:12 36 °F 35.2 °F 29.9 in ENE 2 mph 2 mph 97% 0.01 in 67 W/m2
09:17 36.1 °F 35.4 °F 29.9 in Calm     97% 0 in 83 W/m2
09:22 36.3 °F 35.6 °F 29.9 in Calm     97% 0 in 84 W/m2
09:27 36.3 °F 35.6 °F 29.9 in Calm     97% 0 in 118 W/m2
09:32 36.7 °F 36 °F 29.9 in Calm   1 mph 97% 0 in 76 W/m2
09:37 36.9 °F 36.1 °F 29.9 in ENE 0.9 mph 2 mph 97% 0 in 125 W/m2
09:42 36.9 °F 36.1 °F 29.9 in Calm     97% 0 in 134 W/m2
09:47 37 °F 36.3 °F 29.9 in Calm     97% 0 in 141 W/m2
09:52 37.4 °F 36.7 °F 29.9 in ENE 0.9 mph 2 mph 97% 0 in 162 W/m2
09:57 37.8 °F 37 °F 29.9 in East 2 mph 4 mph 97% 0 in 197 W/m2
10:02 37.9 °F 37.2 °F 29.9 in ENE 0.9 mph 2 mph 97% 0 in 220 W/m2
10:07 38.1 °F 37.4 °F 29.9 in ENE 2 mph 3 mph 97% 0 in 123 W/m2
10:12 38.1 °F 37.4 °F 29.9 in ENE 0.9 mph 2 mph 97% 0 in 165 W/m2
10:17 38.3 °F 37.6 °F 29.9 in NE 0.9 mph 3 mph 97% 0 in 141 W/m2
10:22 38.1 °F 37.4 °F 29.9 in ENE 0.9 mph 3 mph 97% 0 in 137 W/m2
10:27 38.5 °F 37.8 °F 29.9 in Calm   2 mph 97% 0 in 218 W/m2
10:32 38.7 °F 37.9 °F 29.9 in Calm   2 mph 97% 0 in 158 W/m2
10:37 38.8 °F 38.1 °F 29.9 in East 2 mph 3 mph 97% 0 in 211 W/m2
10:42 39.2 °F 38.5 °F 29.9 in ENE 0.9 mph 3 mph 97% 0 in 243 W/m2
10:47 39.7 °F 39 °F 29.9 in Calm   3 mph 97% 0 in 186 W/m2
10:52 40.1 °F 39.4 °F 29.9 in Calm   2 mph 97% 0 in 176 W/m2
10:57 40.5 °F 39.4 °F 29.9 in ENE 2 mph 3 mph 96% 0 in 183 W/m2
11:02 40.8 °F 39.7 °F 29.9 in SE 2 mph 2 mph 96% 0 in 181 W/m2
11:07 41.4 °F 40.1 °F 29.9 in Calm     95% 0 in 176 W/m2
11:12 41.7 °F 40.1 °F 29.9 in East 0.9 mph 3 mph 94% 0 in 186 W/m2
11:17 42.3 °F 40.5 °F 29.9 in ENE 0.9 mph 1 mph 93% 0 in 178 W/m2
Juneau County Weather
Compliments of Weather Underground - 4 mb